Time;durP1;ratioP1;P1;durP2;ratioP2;P2;SDS_P1;SDS_P2;PMS_P1;PMS_P2;Temp;Humidity;BMP_temperature;BMP_pressure;BME280_temperature;BME280_humidity;BME280_pressure;Samples;Min_cycle;Max_cycle;Signal;HPM_P1;HPM_P2
2021/04/05 00:00:23;;;;;;;15.60;9.77;;;;;;;0.94;77.63;93682.03;5090558;28;20381;-84
2021/04/05 00:02:49;;;;;;;19.23;9.85;;;;;;;0.94;77.12;93677.56;5090274;28;20160;-84
2021/04/05 00:05:18;;;;;;;14.65;9.23;;;;;;;0.95;76.75;93678.34;5065102;28;20029;-84
2021/04/05 00:07:45;;;;;;;18.17;9.93;;;;;;;0.98;77.69;93683.09;5069448;28;20411;-84
2021/04/05 00:10:20;;;;;;;16.73;9.57;;;;;;;0.94;76.35;93677.56;5059696;28;20028;-83
2021/04/05 00:12:46;;;;;;;14.23;8.77;;;;;;;0.95;76.89;93689.63;5065391;28;20031;-84
2021/04/05 00:15:12;;;;;;;13.60;9.43;;;;;;;0.94;75.84;93682.81;5071879;28;20550;-84
2021/04/05 00:17:39;;;;;;;15.20;9.73;;;;;;;0.97;76.30;93677.03;5071707;28;20048;-84
2021/04/05 00:20:13;;;;;;;13.93;8.80;;;;;;;0.96;76.51;93685.97;5090261;28;20081;-84
2021/04/05 00:22:41;;;;;;;17.15;9.45;;;;;;;0.96;76.01;93677.31;5069748;28;20145;-87
2021/04/05 00:25:07;;;;;;;14.18;9.23;;;;;;;0.93;74.61;93668.13;5064100;28;20023;-87
2021/04/05 00:27:33;;;;;;;15.32;9.23;;;;;;;0.99;75.78;93680.19;5069520;28;20455;-87
2021/04/05 00:29:58;;;;;;;14.48;9.05;;;;;;;1.00;75.86;93687.03;5059572;28;20059;-83
2021/04/05 00:32:24;;;;;;;17.27;8.88;;;;;;;0.99;75.96;93679.41;5060798;28;20024;-83
2021/04/05 00:34:49;;;;;;;19.17;9.98;;;;;;;1.03;74.57;93675.25;5063816;28;20106;-83
2021/04/05 00:37:15;;;;;;;17.23;9.75;;;;;;;0.92;74.85;93679.66;5105849;28;20028;-83
2021/04/05 00:39:41;;;;;;;17.65;9.20;;;;;;;0.96;74.26;93685.19;5070181;28;20020;-83
2021/04/05 00:42:07;;;;;;;14.82;9.00;;;;;;;0.93;74.18;93678.59;5065862;28;20043;-85
2021/04/05 00:44:32;;;;;;;16.65;9.75;;;;;;;0.85;74.80;93678.31;5064911;28;20554;-84
2021/04/05 00:46:58;;;;;;;13.98;8.93;;;;;;;0.88;74.17;93673.34;5064151;28;20067;-84
2021/04/05 00:49:23;;;;;;;15.10;9.25;;;;;;;0.93;74.67;93673.38;5059367;28;20077;-83
2021/04/05 00:51:49;;;;;;;15.10;9.10;;;;;;;0.90;74.63;93665.22;5089837;28;20043;-84
2021/04/05 00:54:14;;;;;;;17.15;10.05;;;;;;;0.96;74.97;93679.94;5062255;28;20020;-83
2021/04/05 00:56:40;;;;;;;13.98;9.70;;;;;;;0.97;74.64;93677.03;5066266;28;20019;-83
2021/04/05 00:59:06;;;;;;;16.10;9.27;;;;;;;0.97;73.75;93676.28;5063372;28;20379;-82
2021/04/05 01:01:33;;;;;;;15.65;9.68;;;;;;;0.94;72.91;93668.91;5064287;28;20024;-85
2021/04/05 01:03:58;;;;;;;14.02;8.93;;;;;;;0.98;73.66;93681.25;5089732;28;20030;-85
2021/04/05 01:06:32;;;;;;;17.27;9.07;;;;;;;1.03;73.69;93680.50;5090085;28;20471;-86
2021/04/05 01:08:59;;;;;;;15.57;8.85;;;;;;;1.03;74.02;93679.69;5090001;28;20024;-85
2021/04/05 01:11:30;;;;;;;18.40;9.18;;;;;;;1.07;73.44;93678.94;5071605;28;20376;-85
2021/04/05 01:13:56;;;;;;;13.68;8.73;;;;;;;1.06;73.61;93669.50;5052097;28;20024;-85
2021/04/05 01:16:26;;;;;;;13.90;8.25;;;;;;;1.13;73.92;93675.28;5071727;28;20419;-85
2021/04/05 01:18:52;;;;;;;13.35;8.23;;;;;;;1.10;71.67;93673.16;5069253;28;20032;-85
2021/04/05 01:21:18;;;;;;;20.73;9.35;;;;;;;1.17;72.89;93675.53;5072587;28;20020;-85
2021/04/05 01:23:43;;;;;;;14.43;8.00;;;;;;;1.11;72.36;93681.81;5090227;28;20548;-84
2021/04/05 01:26:09;;;;;;;13.10;8.38;;;;;;;1.17;72.87;93681.56;5069783;28;20051;-85
2021/04/05 01:28:34;;;;;;;14.13;9.10;;;;;;;1.00;72.15;93676.53;5072187;28;20085;-85
2021/04/05 01:31:01;;;;;;;15.90;9.98;;;;;;;0.97;72.85;93690.16;5065048;28;20020;-85
2021/04/05 01:33:33;;;;;;;19.15;9.77;;;;;;;0.96;73.06;93680.72;5068798;28;20054;-84
2021/04/05 01:36:05;;;;;;;14.32;9.30;;;;;;;0.95;74.15;93681.75;5072285;28;20115;-86
2021/04/05 01:38:32;;;;;;;15.77;9.00;;;;;;;0.99;74.50;93682.81;5075146;28;20471;-86
2021/04/05 01:41:09;;;;;;;16.98;9.85;;;;;;;1.03;74.00;93682.31;5092962;28;20055;-85
2021/04/05 01:43:35;;;;;;;12.77;8.35;;;;;;;1.02;73.01;93683.38;5069664;28;20031;-86
2021/04/05 01:46:02;;;;;;;18.58;9.70;;;;;;;0.99;73.23;93682.81;5066615;28;20027;-86
2021/04/05 01:48:29;;;;;;;15.13;9.13;;;;;;;1.07;72.78;93686.03;5066803;28;20031;-86
2021/04/05 01:51:03;;;;;;;16.70;9.75;;;;;;;1.09;73.11;93686.56;5065262;28;20031;-85
2021/04/05 01:53:29;;;;;;;14.05;9.25;;;;;;;1.09;73.08;93686.56;5100837;28;20020;-86
2021/04/05 01:55:59;;;;;;;17.17;10.15;;;;;;;1.04;72.70;93682.06;5061612;28;20031;-86
2021/04/05 01:58:25;;;;;;;19.27;10.48;;;;;;;1.10;73.06;93681.06;5066924;28;20031;-85
2021/04/05 02:00:51;;;;;;;16.85;9.80;;;;;;;1.11;72.94;93682.63;5059139;28;20052;-85
2021/04/05 02:03:17;;;;;;;19.13;11.02;;;;;;;1.11;72.66;93681.81;5069295;28;20055;-85
2021/04/05 02:05:47;;;;;;;17.55;9.73;;;;;;;1.12;72.96;93680.78;5063502;28;20185;-86
2021/04/05 02:08:16;;;;;;;14.45;10.25;;;;;;;1.11;72.11;93680.00;5089220;28;20028;-86
2021/04/05 02:10:43;;;;;;;17.40;10.70;;;;;;;1.14;72.86;93686.56;5093206;28;20076;-84
2021/04/05 02:13:08;;;;;;;17.52;10.45;;;;;;;1.06;72.38;93687.84;5092897;28;20100;-84
2021/04/05 02:15:34;;;;;;;17.77;10.75;;;;;;;1.06;72.09;93684.44;5059853;28;20112;-84
2021/04/05 02:18:01;;;;;;;18.40;10.68;;;;;;;1.07;72.70;93675.53;5092623;28;20032;-85
2021/04/05 02:20:29;;;;;;;18.45;11.20;;;;;;;1.11;71.71;93680.00;5066242;28;20412;-85
2021/04/05 02:22:54;;;;;;;17.90;10.80;;;;;;;1.10;71.67;93680.25;5092866;28;20032;-84
2021/04/05 02:25:22;;;;;;;19.17;10.40;;;;;;;1.06;72.10;93684.44;5092879;28;20520;-84
2021/04/05 02:27:50;;;;;;;22.63;11.70;;;;;;;1.05;71.92;93678.41;5062184;28;20415;-84
2021/04/05 02:30:27;;;;;;;17.67;10.13;;;;;;;1.05;71.35;93685.47;5092240;28;20027;-84
2021/04/05 02:32:58;;;;;;;22.15;12.40;;;;;;;1.09;70.60;93673.44;5092294;28;20031;-84
2021/04/05 02:35:26;;;;;;;18.20;10.75;;;;;;;1.16;70.64;93679.19;5074052;28;20413;-84
2021/04/05 02:37:54;;;;;;;19.33;11.05;;;;;;;1.18;69.84;93687.59;5092093;28;20051;-84
2021/04/05 02:40:20;;;;;;;16.25;10.00;;;;;;;1.17;68.15;93681.56;5058734;28;20052;-85
2021/04/05 02:42:47;;;;;;;21.65;11.75;;;;;;;1.19;69.61;93682.09;5071878;28;20028;-84
2021/04/05 02:45:16;;;;;;;19.00;11.20;;;;;;;1.20;69.60;93681.06;5061838;28;20028;-84
2021/04/05 02:47:42;;;;;;;18.30;10.45;;;;;;;1.24;69.39;93683.16;5070435;28;20031;-84
2021/04/05 02:50:09;;;;;;;18.48;10.80;;;;;;;1.27;68.51;93690.53;5061839;28;20030;-84
2021/04/05 02:52:37;;;;;;;16.27;9.77;;;;;;;1.29;67.68;93699.72;5070466;28;20028;-84
2021/04/05 02:55:09;;;;;;;17.58;10.55;;;;;;;1.32;68.88;93685.28;5066095;28;20056;-84
2021/04/05 02:57:36;;;;;;;18.55;11.35;;;;;;;1.37;70.52;93696.59;5070314;28;20020;-85
2021/04/05 03:00:08;;;;;;;16.50;10.45;;;;;;;1.42;69.89;93692.41;5062890;28;20120;-85
2021/04/05 03:02:35;;;;;;;17.40;10.52;;;;;;;1.38;70.48;93698.19;5068811;28;20475;-86
2021/04/05 03:05:03;;;;;;;20.77;10.68;;;;;;;1.38;70.68;93698.19;5071299;28;20428;-85
2021/04/05 03:07:28;;;;;;;16.67;9.98;;;;;;;1.25;71.01;93706.56;5048167;28;20178;-85
2021/04/05 03:09:54;;;;;;;17.10;10.00;;;;;;;1.17;70.85;93705.22;5054631;28;20115;-85
2021/04/05 03:12:20;;;;;;;17.58;10.27;;;;;;;1.12;71.96;93699.16;5069862;28;20416;-87
2021/04/05 03:14:46;;;;;;;19.52;10.80;;;;;;;1.16;71.40;93692.34;5070071;28;20025;-87
2021/04/05 03:17:12;;;;;;;15.68;10.48;;;;;;;1.13;71.30;93712.03;5062872;28;20035;-85
2021/04/05 03:19:40;;;;;;;17.10;10.25;;;;;;;1.04;71.82;93703.06;5053430;28;20029;-87
2021/04/05 03:22:06;;;;;;;21.40;11.57;;;;;;;0.96;72.18;93701.72;5054720;28;20042;-87
2021/04/05 03:24:36;;;;;;;18.38;10.25;;;;;;;0.98;72.33;93699.63;5061087;28;20033;-82
2021/04/05 03:27:01;;;;;;;16.02;9.68;;;;;;;0.89;71.81;93695.91;5054238;28;20079;-82
2021/04/05 03:29:28;;;;;;;17.30;9.98;;;;;;;0.87;72.02;93710.34;5069466;28;20024;-82
2021/04/05 03:31:55;;;;;;;15.77;10.15;;;;;;;0.82;73.10;93711.13;5069391;28;20100;-82
2021/04/05 03:34:26;;;;;;;17.92;10.23;;;;;;;0.89;72.95;93710.88;5069236;28;20048;-81
2021/04/05 03:37:03;;;;;;;16.95;10.63;;;;;;;0.77;72.25;93703.22;5066620;28;20021;-82
2021/04/05 03:39:28;;;;;;;16.70;10.63;;;;;;;0.78;71.78;93702.19;5052593;28;20119;-82
2021/04/05 03:42:16;;;;;;;17.92;10.52;;;;;;;0.72;70.64;93711.06;5063586;28;20584;-83
2021/04/05 03:44:44;;;;;;;16.85;10.02;;;;;;;0.70;71.47;93702.66;5050478;28;20021;-82
2021/04/05 03:47:33;;;;;;;14.63;9.30;;;;;;;0.66;70.84;93709.47;5069860;28;20036;-83
2021/04/05 03:50:15;;;;;;;16.50;9.05;;;;;;;0.63;71.44;93708.13;5041828;28;20078;-82
2021/04/05 03:52:48;;;;;;;;;;;;;;;0.53;70.59;93708.88;5068491;28;20036;-83
2021/04/05 03:55:15;;;;;;;14.75;9.02;;;;;;;0.47;70.75;93715.13;5098723;28;19913;-83
2021/04/05 03:57:48;;;;;;;18.80;10.88;;;;;;;0.49;70.25;93707.81;5053792;28;20040;-83
2021/04/05 04:00:17;;;;;;;18.05;10.85;;;;;;;0.50;69.92;93704.13;5064519;28;20127;-82
2021/04/05 04:02:47;;;;;;;18.75;11.13;;;;;;;0.52;69.25;93711.75;5060377;28;20075;-82
2021/04/05 04:05:26;;;;;;;18.50;10.98;;;;;;;0.48;69.13;93706.22;5061932;28;20082;-84
2021/04/05 04:08:10;;;;;;;21.13;11.50;;;;;;;0.47;68.63;93703.84;5060582;28;20025;-83
2021/04/05 04:10:38;;;;;;;16.23;10.20;;;;;;;0.40;69.23;93698.81;5068461;28;20403;-84
2021/04/05 04:13:05;;;;;;;18.48;10.52;;;;;;;0.43;67.66;93706.19;5069831;28;20100;-84
2021/04/05 04:15:33;;;;;;;20.60;10.95;;;;;;;0.48;68.13;93708.84;5061905;28;20568;-85
2021/04/05 04:18:01;;;;;;;20.25;10.82;;;;;;;0.51;68.41;93710.97;5063262;28;20035;-86
2021/04/05 04:20:28;;;;;;;18.15;10.40;;;;;;;0.52;68.87;93711.75;5068429;28;20028;-84
2021/04/05 04:22:55;;;;;;;16.48;9.88;;;;;;;0.46;67.56;93707.50;5064638;28;20090;-85
2021/04/05 04:25:21;;;;;;;17.55;10.88;;;;;;;0.54;68.79;93710.44;5087100;28;20507;-84
2021/04/05 04:27:46;;;;;;;17.48;11.05;;;;;;;0.49;68.44;93705.19;5060087;28;20025;-83
2021/04/05 04:30:32;;;;;;;18.83;10.88;;;;;;;0.53;67.14;93698.38;5066099;28;20380;-84
2021/04/05 04:32:59;;;;;;;17.38;10.23;;;;;;;0.58;66.66;93706.25;5047262;28;20040;-83
2021/04/05 04:35:24;;;;;;;17.17;9.93;;;;;;;0.64;66.40;93706.31;5061670;28;20025;-83
2021/04/05 04:37:51;;;;;;;21.35;10.90;;;;;;;0.62;65.81;93711.03;5069649;28;20077;-84
2021/04/05 04:40:21;;;;;;;15.27;9.50;;;;;;;0.54;65.79;93699.16;5062869;28;20082;-84
2021/04/05 04:42:47;;;;;;;20.98;10.10;;;;;;;0.58;65.21;93708.88;5056347;28;20451;-84
2021/04/05 04:45:13;;;;;;;15.75;9.32;;;;;;;0.58;65.92;93711.50;5070399;28;20093;-84
2021/04/05 04:47:39;;;;;;;19.33;11.10;;;;;;;0.65;66.33;93705.25;5059059;28;20028;-84
2021/04/05 04:50:05;;;;;;;17.98;10.85;;;;;;;0.62;66.54;93721.50;5057473;28;20027;-84
2021/04/05 04:52:30;;;;;;;17.48;10.75;;;;;;;0.64;65.65;93716.81;5061755;28;20407;-85
2021/04/05 04:54:56;;;;;;;19.25;10.95;;;;;;;0.67;65.95;93709.22;5063094;28;20020;-84
2021/04/05 04:57:21;;;;;;;23.02;12.07;;;;;;;0.73;65.76;93723.94;5062962;28;20107;-84
2021/04/05 04:59:47;;;;;;;18.25;10.43;;;;;;;0.75;66.56;93721.03;5058548;28;20051;-82
2021/04/05 05:02:12;;;;;;;19.27;11.23;;;;;;;0.83;65.49;93719.78;5068295;28;20077;-84
2021/04/05 05:04:39;;;;;;;20.92;13.00;;;;;;;0.77;66.37;93729.44;5063050;28;20025;-84
2021/04/05 05:07:05;;;;;;;22.50;11.68;;;;;;;0.74;66.29;93735.22;5065954;28;20119;-84
2021/04/05 05:09:31;;;;;;;21.02;13.05;;;;;;;0.78;66.35;93726.56;5074001;28;20510;-84
2021/04/05 05:11:56;;;;;;;22.02;12.15;;;;;;;0.78;66.21;93723.16;5062859;28;20033;-83
2021/04/05 05:14:23;;;;;;;18.77;11.00;;;;;;;0.83;66.75;93722.41;5061486;28;20121;-83
2021/04/05 05:16:48;;;;;;;21.83;11.77;;;;;;;0.86;66.48;93725.31;5061596;28;20056;-83
2021/04/05 05:19:15;;;;;;;19.23;11.30;;;;;;;0.93;65.83;93741.59;5065691;28;20025;-84
2021/04/05 05:21:50;;;;;;;17.83;10.50;;;;;;;0.97;66.21;93729.53;5063082;28;20024;-83
2021/04/05 05:24:20;;;;;;;23.52;12.07;;;;;;;0.98;65.13;93736.38;5063214;28;20024;-83
2021/04/05 05:26:48;;;;;;;21.00;11.40;;;;;;;0.99;65.93;93745.81;5058793;28;20408;-83
2021/04/05 05:29:17;;;;;;;20.10;12.30;;;;;;;1.00;65.95;93736.91;5057882;28;20475;-83
2021/04/05 05:31:43;;;;;;;22.83;12.93;;;;;;;1.04;65.28;93737.19;5058107;28;20035;-84
2021/04/05 05:34:15;;;;;;;17.98;11.07;;;;;;;1.06;65.11;93745.59;5056394;28;20399;-85
2021/04/05 05:36:42;;;;;;;21.20;11.43;;;;;;;1.15;65.48;93728.31;5062524;28;20140;-84
2021/04/05 05:39:07;;;;;;;21.65;11.90;;;;;;;1.24;65.12;93738.31;5064132;28;20117;-83
2021/04/05 05:42:30;;;;;;;20.23;11.32;;;;;;;1.30;65.27;93735.44;5069226;28;20033;-83
2021/04/05 05:45:05;;;;;;;19.98;11.20;;;;;;;1.37;64.37;93751.75;4995255;28;20153;-83
2021/04/05 05:47:49;;;;;;;20.92;12.25;;;;;;;1.42;63.75;93744.94;4995134;28;20034;-83
2021/04/05 05:50:21;;;;;;;22.23;11.95;;;;;;;1.55;65.48;93741.84;5042389;28;20055;-83
2021/04/05 05:53:01;;;;;;;22.90;11.73;;;;;;;1.60;65.00;93742.63;5067599;28;20089;-83
2021/04/05 05:55:52;;;;;;;17.50;10.45;;;;;;;1.71;64.06;93740.00;5064899;28;20028;-83
2021/04/05 05:58:28;;;;;;;19.92;11.88;;;;;;;1.71;63.48;93753.94;5066847;28;20035;-83
2021/04/05 06:01:02;;;;;;;18.88;11.32;;;;;;;1.83;63.29;93750.28;5072652;28;20044;-84
2021/04/05 06:03:46;;;;;;;20.08;11.00;;;;;;;1.90;63.40;93750.81;5092527;28;20032;-84
2021/04/05 06:06:30;;;;;;;23.23;12.68;;;;;;;1.89;64.22;93759.75;5071066;28;20013;-78
2021/04/05 06:09:26;;;;;;;21.52;12.45;;;;;;;1.79;65.18;93763.13;5054362;28;20033;-83
2021/04/05 06:11:55;;;;;;;28.20;13.80;;;;;;;1.83;65.71;93760.78;5055719;28;20476;-85
2021/04/05 06:14:40;;;;;;;23.83;13.13;;;;;;;1.85;64.93;93761.31;5053398;28;20108;-85
2021/04/05 06:17:14;;;;;;;22.60;14.48;;;;;;;1.96;65.00;93766.34;5071226;28;20395;-86
2021/04/05 06:19:49;;;;;;;24.90;14.13;;;;;;;2.02;65.61;93768.97;5063487;28;20020;-86
2021/04/05 06:22:40;;;;;;;19.38;12.23;;;;;;;1.87;65.64;93760.00;5055776;28;20081;-86
2021/04/05 06:25:27;;;;;;;20.02;12.32;;;;;;;1.86;64.78;93771.56;5062896;28;20081;-88
2021/04/05 06:28:06;;;;;;;23.38;14.10;;;;;;;1.83;66.89;93779.97;5066467;28;20024;-84
2021/04/05 06:31:07;;;;;;;26.75;13.95;;;;;;;2.10;66.10;93774.50;5070162;28;20505;-79
2021/04/05 06:33:37;;;;;;;21.33;12.93;;;;;;;2.15;65.59;93777.13;5061924;28;20397;-76
2021/04/05 06:36:24;;;;;;;20.77;12.70;;;;;;;1.95;64.57;93779.72;5053545;28;20031;-78
2021/04/05 06:38:56;;;;;;;25.63;15.63;;;;;;;1.97;66.90;93786.31;5067395;28;20029;-79
2021/04/05 06:41:37;;;;;;;20.02;12.05;;;;;;;1.90;65.50;93787.63;5086477;28;20044;-78
2021/04/05 06:44:21;;;;;;;21.13;13.43;;;;;;;1.84;66.47;93799.19;5072922;28;20114;-79
2021/04/05 06:47:08;;;;;;;21.77;12.65;;;;;;;1.86;67.98;93791.81;5091624;28;20024;-80
2021/04/05 06:50:03;;;;;;;25.13;13.93;;;;;;;1.80;67.82;93785.75;5073157;28;20166;-80
2021/04/05 06:52:54;;;;;;;16.55;10.48;;;;;;;1.93;65.91;93785.25;5066018;28;20048;-80
2021/04/05 06:55:38;;;;;;;19.40;11.23;;;;;;;2.02;66.40;93785.53;5064770;28;20023;-73
2021/04/05 06:58:07;;;;;;;18.08;10.82;;;;;;;2.17;65.97;93776.88;5059370;28;20512;-75
2021/04/05 07:00:39;;;;;;;21.17;12.65;;;;;;;2.28;65.80;93788.16;5090927;28;20420;-76
2021/04/05 07:03:17;;;;;;;22.40;12.30;;;;;;;2.44;66.61;93781.06;5091272;28;20455;-77
2021/04/05 07:05:56;;;;;;;20.73;12.15;;;;;;;2.45;64.23;93778.19;5092812;28;20032;-85
2021/04/05 07:08:50;;;;;;;20.00;11.48;;;;;;;2.47;65.63;93780.56;5086975;28;20011;-80
2021/04/05 07:11:54;;;;;;;20.30;12.32;;;;;;;2.51;65.72;93792.13;5053426;28;20150;-80
2021/04/05 07:14:47;;;;;;;21.02;12.25;;;;;;;2.50;65.25;93791.31;5089459;28;20450;-80
2021/04/05 07:17:38;;;;;;;21.40;11.75;;;;;;;2.56;64.50;93800.78;5071324;28;20028;-79
2021/04/05 07:20:21;;;;;;;20.65;12.00;;;;;;;2.60;65.29;93811.59;5074549;28;20089;-79
2021/04/05 07:22:56;;;;;;;;;;;;;;;2.68;65.47;93792.63;5079942;28;20036;-79
2021/04/05 07:25:58;;;;;;;19.70;11.57;;;;;;;2.80;65.63;93805.53;5096090;28;19908;-78
2021/04/05 07:29:02;;;;;;;26.77;11.23;;;;;;;3.03;66.59;93808.66;5087003;28;20119;-78
2021/04/05 07:31:27;;;;;;;19.83;11.60;;;;;;;3.11;63.07;93818.63;5067301;28;20028;-80
2021/04/05 07:34:00;;;;;;;18.70;10.80;;;;;;;3.05;63.60;93809.16;5101380;28;20038;-77
2021/04/05 07:36:40;;;;;;;19.00;10.95;;;;;;;3.12;63.62;93812.31;5102501;28;20027;-78
2021/04/05 07:39:09;;;;;;;23.63;13.15;;;;;;;3.21;64.12;93821.25;5059958;28;20024;-79
2021/04/05 07:41:58;;;;;;;24.35;12.52;;;;;;;3.38;64.25;93805.91;5068751;28;20443;-78
2021/04/05 07:44:29;;;;;;;21.50;11.68;;;;;;;3.52;62.79;93814.03;5070201;28;20059;-78
2021/04/05 07:47:15;;;;;;;21.60;11.80;;;;;;;3.62;63.07;93821.09;5070096;28;20057;-79
2021/04/05 07:50:06;;;;;;;20.33;11.60;;;;;;;3.76;61.38;93816.81;5051781;28;20267;-83
2021/04/05 07:53:03;;;;;;;20.45;12.40;;;;;;;3.84;61.28;93806.78;5056369;28;20080;-81
2021/04/05 07:55:30;;;;;;;19.60;11.20;;;;;;;3.80;61.01;93812.59;5068525;28;20063;-81
2021/04/05 07:58:19;;;;;;;18.88;10.95;;;;;;;3.88;60.45;93823.63;5058700;28;20052;-81
2021/04/05 08:01:10;;;;;;;16.23;9.98;;;;;;;3.89;60.28;93820.72;5060131;28;20020;-85
2021/04/05 08:04:12;;;;;;;17.83;10.38;;;;;;;3.91;59.45;93818.63;5068947;28;20078;-83
2021/04/05 08:06:51;;;;;;;19.25;11.05;;;;;;;3.82;60.60;93814.94;5067244;28;20028;-81
2021/04/05 08:09:23;;;;;;;17.33;10.05;;;;;;;3.80;59.38;93809.16;5067135;28;20029;-78
2021/04/05 08:12:00;;;;;;;17.23;10.10;;;;;;;3.93;60.50;93821.75;5070138;28;20487;-78
2021/04/05 08:14:51;;;;;;;28.05;11.73;;;;;;;4.26;61.34;93821.31;5057252;28;20029;-79
2021/04/05 08:17:47;;;;;;;16.33;10.07;;;;;;;4.50;58.05;93824.84;5071226;28;20028;-78
2021/04/05 08:20:34;;;;;;;24.58;13.30;;;;;;;4.48;60.67;93829.59;5072168;28;20024;-78
2021/04/05 08:23:22;;;;;;;20.65;11.65;;;;;;;4.52;58.68;93833.28;5076371;28;20152;-82
2021/04/05 08:26:21;;;;;;;19.50;10.43;;;;;;;4.41;59.75;93831.75;5059372;28;20391;-81
2021/04/05 08:29:16;;;;;;;19.92;11.10;;;;;;;4.52;58.15;93833.28;5051551;28;20144;-80
2021/04/05 08:32:15;;;;;;;23.25;11.63;;;;;;;4.55;59.72;93829.28;5092437;28;20040;-73
2021/04/05 08:34:40;;;;;;;19.00;10.38;;;;;;;4.66;57.27;93827.34;5037036;28;20092;-79
2021/04/05 08:37:16;;;;;;;21.17;12.07;;;;;;;4.77;56.92;93820.94;5059965;28;20063;-76
2021/04/05 08:40:06;;;;;;;18.90;10.35;;;;;;;4.93;55.06;93835.59;5081790;28;20032;-76
2021/04/05 08:42:49;;;;;;;19.88;9.98;;;;;;;4.95;56.18;93827.38;5092750;28;20028;-77
2021/04/05 08:45:21;;;;;;;15.75;8.25;;;;;;;5.02;55.70;93828.63;5064973;28;20034;-76
2021/04/05 08:48:09;;;;;;;11.13;7.57;;;;;;;4.97;51.64;93828.69;5069120;28;20028;-77
2021/04/05 08:50:39;;;;;;;14.18;7.80;;;;;;;4.80;54.17;93821.19;5100999;28;20028;-76
2021/04/05 08:53:05;;;;;;;15.40;7.90;;;;;;;4.69;53.92;93816.25;5095863;28;20073;-80
2021/04/05 08:55:32;;;;;;;15.10;8.38;;;;;;;4.83;53.78;93817.19;5094637;28;20032;-79
2021/04/05 08:58:10;;;;;;;12.90;7.78;;;;;;;5.00;52.39;93820.19;5094748;28;20016;-73
2021/04/05 09:00:40;;;;;;;13.52;8.63;;;;;;;5.00;53.91;93814.13;5080588;28;20030;-76
2021/04/05 09:03:11;;;;;;;11.73;7.72;;;;;;;5.02;50.46;93815.41;5101972;28;20032;-75
2021/04/05 09:05:44;;;;;;;12.18;7.60;;;;;;;5.07;52.70;93816.41;5080017;28;20028;-75
2021/04/05 09:08:11;;;;;;;12.82;7.40;;;;;;;5.00;50.16;93814.91;5064841;28;20032;-78
2021/04/05 09:10:52;;;;;;;13.02;7.72;;;;;;;5.25;49.89;93813.09;5070274;28;20032;-79
2021/04/05 09:13:45;;;;;;;12.75;8.32;;;;;;;5.55;50.97;93814.59;5069269;28;20027;-75
2021/04/05 09:16:29;;;;;;;11.60;7.15;;;;;;;5.70;48.80;93816.28;5077171;28;20091;-76
2021/04/05 09:19:18;;;;;;;11.15;6.63;;;;;;;5.76;49.72;93804.56;5052305;28;20024;-76
2021/04/05 09:21:43;;;;;;;14.57;8.27;;;;;;;5.99;50.19;93815.44;5094654;28;20004;-78
2021/04/05 09:24:43;;;;;;;12.25;7.10;;;;;;;6.13;47.95;93795.13;5057528;28;20021;-75
2021/04/05 09:27:36;;;;;;;11.60;7.28;;;;;;;6.24;48.02;93795.75;5062873;28;20081;-79
2021/04/05 09:30:32;;;;;;;15.50;7.93;;;;;;;6.61;48.57;93789.66;5084532;28;20437;-75
2021/04/05 09:33:14;;;;;;;13.07;7.60;;;;;;;6.83;47.06;93804.13;5059703;28;20426;-80
2021/04/05 09:35:39;;;;;;;;;;;;;;;6.68;46.60;93801.75;5067855;28;20077;-82
2021/04/05 09:38:24;;;;;;;12.85;6.43;;;;;;;6.64;47.66;93804.16;5095761;28;19912;-75
2021/04/05 09:41:19;;;;;;;11.02;6.13;;;;;;;6.35;45.56;93797.19;5090093;28;20396;-75
2021/04/05 09:44:10;;;;;;;12.48;6.38;;;;;;;6.39;47.17;93792.09;5050641;28;20547;-76
2021/04/05 09:47:14;;;;;;;11.55;6.55;;;;;;;6.45;48.44;93804.19;5069238;28;20035;-75
2021/04/05 09:49:59;;;;;;;10.50;6.50;;;;;;;6.51;46.58;93795.09;5060030;28;20024;-76
2021/04/05 09:52:41;;;;;;;10.32;6.75;;;;;;;6.57;47.26;93778.06;5066867;28;20509;-76
2021/04/05 09:55:12;;;;;;;8.20;5.57;;;;;;;6.79;45.32;93781.94;5080005;28;20028;-76
2021/04/05 09:57:46;;;;;;;10.95;6.38;;;;;;;6.70;43.76;93765.16;5060914;28;20036;-76
2021/04/05 10:00:16;;;;;;;9.25;6.20;;;;;;;6.80;46.27;93767.63;5058027;28;20020;-75
2021/04/05 10:03:03;;;;;;;11.48;7.00;;;;;;;7.05;46.10;93755.00;5066063;28;20509;-75
2021/04/05 10:05:33;;;;;;;9.43;5.93;;;;;;;7.22;44.29;93749.91;5071171;28;20028;-75
2021/04/05 10:08:01;;;;;;;10.52;6.57;;;;;;;7.48;46.42;93736.16;5091889;28;20106;-75
2021/04/05 10:10:28;;;;;;;10.35;6.57;;;;;;;7.73;46.02;93727.66;5092509;28;20024;-75
2021/04/05 10:12:56;;;;;;;11.00;6.50;;;;;;;8.02;44.33;93732.63;5068555;28;20031;-76
2021/04/05 10:15:25;;;;;;;9.73;5.97;;;;;;;8.14;43.87;93720.69;5072463;28;20030;-76
2021/04/05 10:17:59;;;;;;;12.43;6.75;;;;;;;8.26;44.57;93720.16;5059161;28;20036;-75
2021/04/05 10:20:27;;;;;;;14.10;7.50;;;;;;;8.07;43.01;93721.09;5067075;28;20035;-75
2021/04/05 10:22:54;;;;;;;10.00;7.00;;;;;;;7.93;44.42;93715.06;5059090;28;20028;-75
2021/04/05 10:25:25;;;;;;;11.15;6.53;;;;;;;7.77;43.37;93718.03;5091648;28;20184;-75
2021/04/05 10:27:56;;;;;;;10.18;6.70;;;;;;;7.39;44.55;93717.50;5089910;28;20028;-75
2021/04/05 10:30:31;;;;;;;12.27;6.93;;;;;;;7.55;46.33;93725.94;5086344;28;20195;-75
2021/04/05 10:33:02;;;;;;;12.80;7.53;;;;;;;7.70;44.61;93722.19;5064116;28;20672;-75
2021/04/05 10:35:29;;;;;;;10.20;6.60;;;;;;;7.63;44.59;93720.72;5061457;28;20028;-75
2021/04/05 10:37:55;;;;;;;13.68;6.82;;;;;;;7.53;45.06;93706.88;5060311;28;20024;-76
2021/04/05 10:40:21;;;;;;;10.27;6.05;;;;;;;7.61;43.01;93700.88;5063703;28;20121;-76
2021/04/05 10:42:50;;;;;;;14.02;7.13;;;;;;;7.72;43.42;93693.50;5066225;28;20567;-75
2021/04/05 10:45:29;;;;;;;10.10;6.45;;;;;;;7.76;43.62;93705.84;5070613;28;20020;-76
2021/04/05 10:48:09;;;;;;;10.75;6.57;;;;;;;7.83;44.01;93708.88;5091555;28;20028;-75
2021/04/05 10:50:43;;;;;;;10.32;6.93;;;;;;;8.02;42.67;93702.66;5098811;28;20047;-75
2021/04/05 10:53:15;;;;;;;10.98;6.43;;;;;;;8.21;43.28;93702.47;5064962;28;20039;-76
2021/04/05 10:55:46;;;;;;;11.48;6.43;;;;;;;8.36;42.78;93688.81;5065017;28;20113;-73
2021/04/05 10:58:17;;;;;;;10.93;7.00;;;;;;;8.32;44.83;93693.16;5091668;28;20036;-74
2021/04/05 11:00:48;;;;;;;12.95;8.23;;;;;;;8.24;43.92;93688.56;5069037;28;20327;-75
2021/04/05 11:03:23;;;;;;;10.77;6.80;;;;;;;7.83;44.82;93682.34;5063661;28;20243;-73
2021/04/05 11:05:57;;;;;;;13.15;7.20;;;;;;;7.94;44.72;93679.47;5067859;28;20032;-75
2021/04/05 11:08:30;;;;;;;11.77;6.20;;;;;;;8.11;44.74;93673.50;5070750;28;20463;-75
2021/04/05 11:11:02;;;;;;;12.85;7.13;;;;;;;8.28;44.04;93676.25;5073071;28;20399;-75
2021/04/05 11:13:29;;;;;;;12.50;7.45;;;;;;;8.18;45.58;93666.69;5058384;28;20058;-81
2021/04/05 11:15:57;;;;;;;9.55;6.40;;;;;;;8.10;44.48;93662.13;5065086;28;20483;-77
2021/04/05 11:18:25;;;;;;;11.50;7.43;;;;;;;8.26;44.66;93664.38;5097692;28;20024;-76
2021/04/05 11:20:56;;;;;;;17.85;7.80;;;;;;;8.43;45.32;93662.66;5054723;28;20047;-76
2021/04/05 11:23:24;;;;;;;14.63;6.93;;;;;;;8.50;44.71;93650.81;5055827;28;20469;-77
2021/04/05 11:25:51;;;;;;;10.60;7.07;;;;;;;8.46;43.52;93653.28;5091381;28;20035;-80
2021/04/05 11:28:24;;;;;;;12.80;7.20;;;;;;;8.52;42.93;93646.75;5069598;28;20046;-76
2021/04/05 11:30:57;;;;;;;10.98;7.35;;;;;;;8.54;43.04;93636.63;5065220;28;20102;-79
2021/04/05 11:33:28;;;;;;;12.40;7.03;;;;;;;8.80;43.64;93635.97;5064426;28;20031;-76
2021/04/05 11:35:57;;;;;;;14.57;8.00;;;;;;;9.15;43.48;93628.09;5063291;28;20115;-76
2021/04/05 11:38:23;;;;;;;10.00;6.55;;;;;;;9.54;41.52;93621.13;5063310;28;20036;-76
2021/04/05 11:40:56;;;;;;;12.98;7.15;;;;;;;9.77;41.57;93619.88;5069486;28;20070;-77
2021/04/05 11:43:27;;;;;;;12.70;8.10;;;;;;;10.10;41.87;93611.41;5086796;28;20036;-78
2021/04/05 11:45:59;;;;;;;11.93;7.35;;;;;;;10.31;40.11;93616.09;5097005;28;20024;-81
2021/04/05 11:48:27;;;;;;;13.73;7.95;;;;;;;10.39;41.95;93599.31;5069269;28;20116;-77
2021/04/05 11:50:53;;;;;;;16.33;7.32;;;;;;;10.57;40.07;93597.38;5091502;28;20020;-76
2021/04/05 11:53:51;;;;;;;11.32;6.78;;;;;;;10.79;39.67;93593.69;5091449;28;20529;-75
2021/04/05 11:56:16;;;;;;;11.35;7.47;;;;;;;10.85;39.82;93587.09;5089023;28;20468;-75
2021/04/05 11:59:22;;;;;;;11.50;7.22;;;;;;;11.13;41.04;93590.06;5066865;28;20028;-75